Time;durP1;ratioP1;P1;durP2;ratioP2;P2;SDS_P1;SDS_P2;PMS_P1;PMS_P2;Temp;Humidity;BMP_temperature;BMP_pressure;BME280_temperature;BME280_humidity;BME280_pressure;Samples;Min_cycle;Max_cycle;Signal;HPM_P1;HPM_P2
2022/07/05 05:12:41;;;;;;;3.23;2.20;;;;;;;22.01;63.43;97466.94;6119831;23;20185;-91
2022/07/05 05:39:33;;;;;;;2.17;1.97;;;;;;;18.74;65.72;96915.44;6121555;23;20171;-95
2022/07/05 05:42:13;;;;;;;3.77;1.93;;;;;;;19.97;65.11;97161.28;6078501;23;20180;-94
2022/07/05 05:44:40;;;;;;;3.77;2.40;;;;;;;19.54;65.77;97059.69;6050028;23;20163;-94
2022/07/05 05:47:21;;;;;;;3.50;2.20;;;;;;;20.52;65.65;97215.66;6070784;23;20176;-94
2022/07/05 05:50:01;;;;;;;4.10;2.07;;;;;;;20.76;65.76;97246.13;6051477;23;20156;-95
2022/07/05 05:52:42;;;;;;;5.60;2.60;;;;;;;20.10;65.53;97154.84;6029240;23;20248;-94
2022/07/05 05:55:10;;;;;;;3.53;2.23;;;;;;;22.36;65.72;97540.41;6020967;23;20175;-91
2022/07/05 06:04:06;;;;;;;2.63;2.30;;;;;;;20.39;65.89;97246.75;6122337;23;20168;-93
2022/07/05 06:06:40;;;;;;;4.20;2.50;;;;;;;21.47;65.95;97400.63;6053049;23;20195;-92
2022/07/05 06:09:06;;;;;;;2.70;2.13;;;;;;;18.41;66.19;96899.13;6073574;23;20174;-91
2022/07/05 07:16:32;;;;;;;2.40;1.97;;;;;;;20.84;67.39;97309.38;6100533;23;20218;-91
2022/07/05 07:18:59;;;;;;;2.97;1.90;;;;;;;22.55;67.31;97627.19;6046638;23;20186;-93
2022/07/05 07:24:23;;;;;;;2.53;1.90;;;;;;;21.70;67.86;97449.84;6114582;23;20482;-89
2022/07/05 07:27:02;;;;;;;2.67;2.07;;;;;;;21.68;67.78;97439.59;6077394;23;20215;-91
2022/07/05 07:29:29;;;;;;;2.10;2.00;;;;;;;23.24;68.14;97740.16;6043600;23;20170;-91
2022/07/05 07:31:57;;;;;;;3.07;1.77;;;;;;;22.32;67.83;97584.69;6056366;23;20184;-91
2022/07/05 07:34:23;;;;;;;2.10;1.87;;;;;;;21.26;67.63;97371.94;6053997;23;20468;-91
2022/07/05 07:36:50;;;;;;;3.50;1.87;;;;;;;22.24;67.73;97530.72;6102237;23;20204;-91
2022/07/05 07:39:17;;;;;;;4.13;2.20;;;;;;;22.99;67.65;97657.41;6053545;23;20235;-92
2022/07/05 07:41:44;;;;;;;2.63;2.10;;;;;;;21.27;68.24;97386.47;6052774;23;20179;-90
2022/07/05 07:44:10;;;;;;;3.00;2.03;;;;;;;22.75;67.89;97624.34;6074651;23;20180;-91
2022/07/05 07:46:39;;;;;;;3.13;2.10;;;;;;;22.92;67.92;97679.44;6052612;23;20211;-91
2022/07/05 07:49:06;;;;;;;4.03;2.13;;;;;;;20.17;67.71;97169.53;6053595;23;20267;-92
2022/07/05 07:51:33;;;;;;;2.33;1.97;;;;;;;21.40;67.93;97398.75;6054329;23;20176;-92
2022/07/05 07:54:00;;;;;;;5.00;2.20;;;;;;;23.79;67.99;97805.69;6055455;23;20192;-92
2022/07/05 07:56:29;;;;;;;4.73;2.10;;;;;;;23.79;68.01;97801.41;6084709;23;20212;-91
2022/07/05 07:58:56;;;;;;;3.67;2.07;;;;;;;21.94;68.16;97490.66;6086185;23;20194;-90
2022/07/05 08:01:23;;;;;;;8.43;2.10;;;;;;;23.80;68.59;97825.41;6057985;23;20187;-91
2022/07/05 08:03:50;;;;;;;2.83;2.33;;;;;;;23.41;68.04;97730.31;6059343;23;20175;-91
2022/07/05 08:06:16;;;;;;;3.70;2.30;;;;;;;23.82;68.61;97800.63;6059649;23;20152;-91
2022/07/05 08:08:47;;;;;;;3.23;2.03;;;;;;;22.79;68.64;97636.38;6110748;23;20184;-93
2022/07/05 08:11:14;;;;;;;4.63;2.10;;;;;;;21.02;68.09;97330.34;6065533;23;20216;-90
2022/07/05 08:13:40;;;;;;;2.77;2.10;;;;;;;21.72;68.38;97440.53;6061867;23;20227;-92
2022/07/05 08:16:08;;;;;;;5.37;2.43;;;;;;;19.30;68.57;97023.28;6086982;23;20167;-91
2022/07/05 08:21:32;;;;;;;5.67;2.27;;;;;;;22.86;68.63;97619.47;6089193;23;20172;-92
2022/07/05 08:23:59;;;;;;;3.43;2.23;;;;;;;21.88;68.38;97446.97;6091453;23;20218;-91
2022/07/05 08:26:27;;;;;;;2.30;2.10;;;;;;;22.94;68.48;97633.34;6058233;23;20203;-90
2022/07/05 08:28:53;;;;;;;2.90;2.43;;;;;;;22.24;68.91;97525.63;6084521;23;20230;-92
2022/07/05 08:31:39;;;;;;;3.43;2.00;;;;;;;19.76;68.50;97130.91;6083920;23;20160;-92
2022/07/05 08:34:06;;;;;;;3.23;2.30;;;;;;;22.25;68.65;97532.44;6086901;23;20195;-90
2022/07/05 08:36:32;;;;;;;3.37;2.30;;;;;;;21.96;68.51;97477.06;6085509;23;20180;-91
2022/07/05 08:38:59;;;;;;;2.57;2.33;;;;;;;19.98;68.40;97109.44;6083306;23;20187;-89
2022/07/05 08:41:26;;;;;;;4.87;2.43;;;;;;;21.00;68.88;97288.59;6100698;23;20180;-91
2022/07/05 08:43:52;;;;;;;6.00;2.70;;;;;;;21.68;68.81;97434.47;6103627;23;20171;-91
2022/07/05 08:46:20;;;;;;;3.17;2.43;;;;;;;20.10;68.78;97171.00;6078426;23;20164;-90
2022/07/05 08:48:48;;;;;;;5.07;2.33;;;;;;;20.24;68.61;97181.63;6077274;23;20182;-91
2022/07/05 08:51:23;;;;;;;4.30;2.40;;;;;;;22.22;68.95;97555.41;6077892;23;20184;-90
2022/07/05 08:53:51;;;;;;;4.07;2.20;;;;;;;20.92;68.83;97282.34;6056320;23;20206;-91
2022/07/05 08:56:18;;;;;;;5.10;2.60;;;;;;;19.01;68.69;96955.28;6101500;23;20183;-90
2022/07/05 08:59:00;;;;;;;7.70;2.70;;;;;;;20.94;68.75;97283.28;6081338;23;20184;-92
2022/07/05 09:01:26;;;;;;;4.70;2.60;;;;;;;21.30;68.25;97398.44;6101949;23;20159;-92
2022/07/05 09:03:53;;;;;;;4.87;2.83;;;;;;;18.63;68.73;96881.16;6103770;23;20164;-91
2022/07/05 09:06:24;;;;;;;4.93;2.70;;;;;;;18.92;68.58;96979.63;6078701;23;20179;-90
2022/07/05 09:08:52;;;;;;;6.30;2.63;;;;;;;20.69;68.62;97255.28;6077259;23;20504;-93
2022/07/05 09:11:19;;;;;;;4.27;2.70;;;;;;;21.60;68.75;97394.19;6077783;23;20186;-90
2022/07/05 09:13:49;;;;;;;4.37;2.97;;;;;;;22.01;68.95;97495.09;6076672;23;20195;-90
2022/07/05 09:16:35;;;;;;;3.97;2.60;;;;;;;21.25;68.61;97341.22;6079120;23;20514;-91
2022/07/05 09:19:06;;;;;;;6.20;2.97;;;;;;;20.59;68.87;97225.22;6076248;23;20167;-91
2022/07/05 09:21:33;;;;;;;7.07;3.07;;;;;;;23.01;69.02;97648.06;6076217;23;20307;-91
2022/07/05 09:24:05;;;;;;;5.20;3.10;;;;;;;22.39;69.02;97591.72;6099934;23;20187;-91
2022/07/05 09:26:35;;;;;;;5.80;3.03;;;;;;;23.86;69.11;97789.63;6052430;23;20179;-90
2022/07/05 09:29:03;;;;;;;6.37;3.20;;;;;;;21.30;69.09;97378.00;6102126;23;20187;-90
2022/07/05 09:31:50;;;;;;;4.07;2.77;;;;;;;20.39;69.29;97233.13;6058982;23;20246;-91
2022/07/05 09:34:21;;;;;;;5.53;3.13;;;;;;;19.77;69.22;97091.84;6026317;23;20535;-90
2022/07/05 09:36:48;;;;;;;7.53;3.00;;;;;;;23.86;69.25;97789.63;6051552;23;20203;-90
2022/07/05 09:39:14;;;;;;;3.93;2.33;;;;;;;20.12;68.92;97171.94;6101387;23;20259;-91
2022/07/05 09:41:41;;;;;;;7.13;3.07;;;;;;;19.45;69.03;97023.75;6053994;23;20199;-91
2022/07/05 09:44:08;;;;;;;5.23;3.20;;;;;;;23.16;69.28;97674.09;6101116;23;20672;-90
2022/07/05 09:46:34;;;;;;;5.27;3.20;;;;;;;20.53;69.33;97219.97;6053205;23;20236;-91
2022/07/05 09:49:01;;;;;;;5.87;3.40;;;;;;;21.25;69.32;97388.09;6102540;23;20179;-90
2022/07/05 09:51:28;;;;;;;5.47;3.10;;;;;;;23.73;69.23;97767.03;6052472;23;20188;-91
2022/07/05 09:54:15;;;;;;;6.70;3.00;;;;;;;23.84;69.34;97802.41;6078774;23;20196;-89
2022/07/05 09:56:45;;;;;;;5.70;3.17;;;;;;;20.18;69.38;97225.72;6053718;23;20203;-90
2022/07/05 09:59:19;;;;;;;5.33;3.23;;;;;;;22.18;68.50;97565.53;6054834;23;20180;-89
2022/07/05 10:01:47;;;;;;;6.30;2.90;;;;;;;23.83;69.54;97802.38;6051800;23;20179;-90
2022/07/05 10:04:14;;;;;;;7.43;3.63;;;;;;;21.47;68.93;97395.53;6076531;23;20175;-91
2022/07/05 10:06:42;;;;;;;4.13;2.60;;;;;;;21.42;69.13;97426.91;6053767;23;20203;-91
2022/07/05 10:09:10;;;;;;;6.97;3.57;;;;;;;20.81;69.40;97277.78;6077100;23;20176;-90
2022/07/05 10:11:41;;;;;;;5.03;3.00;;;;;;;22.84;69.59;97623.69;6052849;23;20179;-90
2022/07/05 10:14:16;;;;;;;4.63;3.00;;;;;;;22.69;69.21;97644.66;6054487;23;20187;-91
2022/07/05 10:16:46;;;;;;;5.17;3.10;;;;;;;19.48;69.07;97069.72;6052800;23;20199;-91
2022/07/05 10:19:15;;;;;;;7.13;3.40;;;;;;;20.01;69.40;97167.34;6100107;23;20168;-88
2022/07/05 10:21:42;;;;;;;5.73;3.50;;;;;;;21.68;69.14;97424.22;6049711;23;20179;-91
2022/07/05 10:24:32;;;;;;;5.53;3.00;;;;;;;20.96;69.55;97309.75;6069879;23;20214;-90
2022/07/05 10:26:59;;;;;;;8.20;3.67;;;;;;;21.76;68.60;97428.75;6076683;23;20227;-91
2022/07/05 10:29:25;;;;;;;5.70;3.33;;;;;;;22.70;69.41;97648.94;6078215;23;20186;-90
2022/07/05 10:31:52;;;;;;;7.47;3.37;;;;;;;22.94;69.85;97643.59;6076527;23;20784;-91
2022/07/05 10:34:19;;;;;;;7.77;3.40;;;;;;;23.09;69.94;97685.88;6097764;23;20256;-91
2022/07/05 10:37:05;;;;;;;6.00;3.37;;;;;;;22.97;69.40;97652.22;6084000;23;20286;-90
2022/07/05 10:39:32;;;;;;;8.37;3.77;;;;;;;20.67;69.59;97268.84;6103984;23;20179;-88
2022/07/05 10:41:58;;;;;;;5.53;3.43;;;;;;;21.02;69.70;97320.13;6076489;23;20180;-90
2022/07/05 10:44:34;;;;;;;6.47;3.17;;;;;;;23.35;69.48;97723.34;6074037;23;20684;-91
2022/07/05 10:47:11;;;;;;;4.50;3.13;;;;;;;23.10;69.69;97664.56;6055031;23;20207;-90
2022/07/05 10:49:38;;;;;;;8.47;3.60;;;;;;;23.47;70.21;97740.72;6078193;23;20211;-90
2022/07/05 10:52:05;;;;;;;5.83;3.50;;;;;;;22.57;69.72;97575.19;6079031;23;20172;-90
2022/07/05 10:54:32;;;;;;;6.10;3.33;;;;;;;21.85;69.82;97449.47;6100180;23;20270;-89
2022/07/05 10:57:24;;;;;;;5.47;3.43;;;;;;;23.84;69.76;97798.97;6074298;23;20196;-90
2022/07/05 11:00:29;;;;;;;5.13;3.10;;;;;;;23.84;69.86;97804.09;6081858;23;20517;-90
2022/07/05 11:03:35;;;;;;;6.03;3.57;;;;;;;23.82;70.07;97796.38;6081791;23;20593;-89
2022/07/05 11:06:07;;;;;;;7.07;3.90;;;;;;;20.22;69.88;97165.44;6081453;23;20186;-89
2022/07/05 11:09:00;;;;;;;5.37;3.40;;;;;;;19.25;69.75;96996.81;6077639;23;20224;-91
2022/07/05 11:11:40;;;;;;;5.97;3.40;;;;;;;22.47;69.70;97556.94;6143312;23;20184;-92
2022/07/05 11:14:19;;;;;;;4.97;3.60;;;;;;;23.82;69.94;97777.50;6120795;23;20224;-92
2022/07/05 11:16:46;;;;;;;5.83;3.40;;;;;;;21.14;70.19;97340.91;6140255;23;20196;-90
2022/07/05 11:19:17;;;;;;;6.37;4.07;;;;;;;18.77;69.63;96906.19;6059706;23;20188;-86
2022/07/05 11:22:00;;;;;;;5.77;3.53;;;;;;;21.39;70.81;97388.47;6097515;23;20176;-91
2022/07/05 11:24:28;;;;;;;5.93;3.40;;;;;;;20.63;69.09;97239.81;6093078;23;20187;-92
2022/07/05 11:26:57;;;;;;;7.87;3.70;;;;;;;20.89;70.28;97314.59;6056831;23;20261;-89
2022/07/05 11:29:42;;;;;;;7.53;4.00;;;;;;;23.82;70.14;97770.69;6076953;23;20176;-90
2022/07/05 11:32:11;;;;;;;7.37;4.20;;;;;;;21.91;70.19;97447.94;6102329;23;20239;-91
2022/07/05 11:34:37;;;;;;;8.63;3.97;;;;;;;19.00;69.94;96932.31;6077014;23;20192;-92
2022/07/05 11:37:13;;;;;;;7.90;4.40;;;;;;;23.83;70.17;97774.13;6102585;23;20283;-90
2022/07/05 11:40:06;;;;;;;8.00;3.90;;;;;;;23.82;70.15;97760.44;6108055;23;20164;-92
2022/07/05 11:42:39;;;;;;;6.80;4.10;;;;;;;20.91;70.40;97315.53;6110362;23;20175;-93
2022/07/05 11:45:07;;;;;;;12.03;4.73;;;;;;;20.84;70.37;97271.06;6102185;23;20156;-90
2022/07/05 11:47:35;;;;;;;9.57;4.30;;;;;;;20.93;70.11;97267.91;6085760;23;20696;-90
2022/07/05 11:50:09;;;;;;;10.37;4.47;;;;;;;18.73;70.50;96876.38;6082634;23;20199;-90
2022/07/05 11:52:36;;;;;;;9.90;5.00;;;;;;;20.09;70.58;97115.72;6105931;23;20234;-90
2022/07/05 11:55:08;;;;;;;13.17;4.80;;;;;;;19.69;71.38;97060.16;6104463;23;20195;-90
2022/07/05 11:57:35;;;;;;;11.53;4.67;;;;;;;20.77;70.46;97228.28;6083258;23;20204;-90
2022/07/05 12:00:02;;;;;;;12.93;4.60;;;;;;;19.76;70.60;97117.28;6103402;23;20179;-92
2022/07/05 12:02:29;;;;;;;12.30;5.13;;;;;;;23.84;71.20;97761.34;6058008;23;20190;-86
2022/07/05 12:04:56;;;;;;;7.80;4.53;;;;;;;22.35;70.90;97511.38;6084462;23;20186;-92
2022/07/05 12:07:27;;;;;;;10.00;5.17;;;;;;;20.96;70.90;97255.25;6083281;23;20223;-89
2022/07/05 12:12:45;;;;;;;12.60;5.10;;;;;;;19.36;70.72;97003.09;6085190;23;20547;-90
2022/07/05 12:15:16;;;;;;;10.57;5.00;;;;;;;20.98;71.21;97286.78;6081438;23;20216;-89
2022/07/05 12:17:43;;;;;;;8.97;4.90;;;;;;;20.41;70.85;97221.28;6080496;23;20805;-90
2022/07/05 12:20:12;;;;;;;9.77;4.53;;;;;;;22.30;70.86;97504.41;6082561;23;20207;-91
2022/07/05 12:22:43;;;;;;;13.63;5.13;;;;;;;20.85;70.88;97231.06;6079246;23;20187;-90
2022/07/05 12:25:17;;;;;;;7.20;4.77;;;;;;;20.91;70.47;97275.53;6079435;23;20207;-89
2022/07/05 12:27:44;;;;;;;11.43;4.90;;;;;;;21.29;70.84;97317.50;6077781;23;20262;-91
2022/07/05 12:30:11;;;;;;;8.13;5.23;;;;;;;19.93;70.83;97071.03;6078369;23;20176;-90
2022/07/05 12:32:54;;;;;;;11.40;5.33;;;;;;;23.85;70.78;97739.09;6055168;23;20176;-88
2022/07/05 12:35:29;;;;;;;9.80;5.23;;;;;;;23.85;71.03;97732.25;6102293;23;20999;-89
2022/07/05 12:37:56;;;;;;;8.93;4.70;;;;;;;21.17;70.74;97310.34;6104100;23;20203;-92
2022/07/05 12:40:23;;;;;;;8.20;4.83;;;;;;;22.51;70.89;97516.13;6095948;23;20144;-89
2022/07/05 12:43:09;;;;;;;11.73;4.80;;;;;;;20.88;71.06;97272.00;6095546;23;20199;-91
2022/07/05 12:45:37;;;;;;;8.03;4.77;;;;;;;20.98;71.38;97274.03;6088492;23;20543;-92
2022/07/05 12:48:05;;;;;;;10.30;5.20;;;;;;;19.44;71.67;97010.97;6081563;23;20341;-90
2022/07/05 12:50:52;;;;;;;10.73;4.90;;;;;;;22.60;70.61;97572.69;6077391;23;20222;-90
2022/07/05 12:59:56;;;;;;;8.53;5.00;;;;;;;20.66;70.79;97259.47;6112999;23;20430;-93
2022/07/05 13:02:37;;;;;;;11.37;5.00;;;;;;;23.86;70.68;97746.81;6093561;23;20152;-94
2022/07/05 13:05:06;;;;;;;11.53;4.80;;;;;;;19.20;69.34;97000.00;6090355;23;20182;-90
2022/07/05 13:07:33;;;;;;;9.13;4.40;;;;;;;19.74;70.02;97101.94;6085858;23;20200;-90
2022/07/05 13:10:15;;;;;;;8.23;4.70;;;;;;;23.86;70.33;97753.69;6078861;23;20192;-90
2022/07/05 13:12:42;;;;;;;10.10;5.17;;;;;;;18.71;70.22;96857.63;6099105;23;20183;-91
2022/07/05 13:15:09;;;;;;;12.73;5.27;;;;;;;20.84;70.08;97227.63;6076382;23;20196;-89
2022/07/05 13:17:35;;;;;;;11.37;4.70;;;;;;;20.36;69.88;97136.94;6100479;23;20565;-90
2022/07/05 13:20:03;;;;;;;12.30;4.70;;;;;;;19.47;70.23;96983.03;6099144;23;20207;-90
2022/07/05 13:22:30;;;;;;;10.23;4.93;;;;;;;18.82;70.32;96866.47;6099322;23;20179;-90
2022/07/05 13:24:56;;;;;;;8.23;4.60;;;;;;;20.90;69.99;97221.84;6098209;23;20188;-90
2022/07/05 13:27:23;;;;;;;8.90;4.73;;;;;;;21.30;70.28;97311.53;6101077;23;20794;-90
2022/07/05 13:29:55;;;;;;;6.87;4.00;;;;;;;18.88;70.27;96871.75;6076497;23;20157;-89
2022/07/05 13:32:21;;;;;;;9.50;4.67;;;;;;;20.11;70.25;97090.25;6100268;23;20194;-91
2022/07/05 13:34:48;;;;;;;10.60;4.90;;;;;;;22.09;70.24;97437.31;6100368;23;20207;-90
2022/07/05 13:37:15;;;;;;;6.57;4.80;;;;;;;20.98;70.34;97290.22;6100117;23;20529;-89
2022/07/05 13:39:42;;;;;;;8.57;4.77;;;;;;;20.60;70.16;97167.38;6100122;23;20180;-90
2022/07/05 13:42:08;;;;;;;10.00;4.33;;;;;;;21.04;69.83;97264.84;6100552;23;20179;-90
2022/07/05 13:44:35;;;;;;;9.03;4.67;;;;;;;18.65;70.45;96826.91;6073892;23;20183;-91
2022/07/05 13:47:03;;;;;;;7.53;4.60;;;;;;;20.67;69.32;97226.31;6099563;23;20275;-90
2022/07/05 13:49:30;;;;;;;8.97;4.93;;;;;;;21.57;70.30;97345.50;6078789;23;20175;-90
2022/07/05 13:52:00;;;;;;;9.07;4.63;;;;;;;21.01;70.35;97282.66;6096464;23;20187;-89
2022/07/05 13:54:28;;;;;;;8.60;4.53;;;;;;;19.23;69.99;96972.97;6077421;23;20515;-90
2022/07/05 13:56:58;;;;;;;9.67;5.00;;;;;;;20.74;69.68;97196.69;6103637;23;20198;-91
2022/07/05 13:59:25;;;;;;;9.33;4.53;;;;;;;19.05;70.00;96879.88;6103122;23;20179;-89
2022/07/05 14:01:51;;;;;;;12.40;5.57;;;;;;;21.03;70.23;97246.91;6103313;23;20175;-91
2022/07/05 14:04:18;;;;;;;6.80;4.00;;;;;;;18.83;70.09;96852.91;6106836;23;20186;-90
2022/07/05 14:06:46;;;;;;;10.00;4.30;;;;;;;20.16;70.29;97139.75;6086857;23;20192;-91
2022/07/05 14:09:19;;;;;;;5.70;4.20;;;;;;;20.05;70.43;97113.03;6086150;23;20659;-91
2022/07/05 14:11:53;;;;;;;8.23;4.43;;;;;;;20.94;70.89;97262.84;6064970;23;20179;-90
2022/07/05 14:14:20;;;;;;;7.60;4.60;;;;;;;19.22;70.55;96933.00;6089226;23;20187;-91
2022/07/05 14:16:47;;;;;;;7.63;4.50;;;;;;;20.13;70.62;97117.56;6085851;23;20274;-92
2022/07/05 14:19:13;;;;;;;9.07;4.60;;;;;;;22.60;70.63;97539.41;6101157;23;20180;-90
2022/07/05 14:21:45;;;;;;;10.63;3.83;;;;;;;19.65;70.27;97002.25;6075070;23;20184;-90
2022/07/05 14:24:12;;;;;;;6.63;3.87;;;;;;;21.22;70.59;97303.66;6102164;23;20198;-91
2022/07/05 14:26:40;;;;;;;8.40;4.80;;;;;;;20.59;71.00;97188.63;6103655;23;20191;-90
2022/07/05 14:29:13;;;;;;;5.63;4.27;;;;;;;20.90;71.10;97237.16;6057655;23;20675;-93
2022/07/05 14:31:40;;;;;;;7.27;4.20;;;;;;;22.63;70.94;97500.19;6076506;23;20188;-91
2022/07/05 14:34:07;;;;;;;6.30;4.03;;;;;;;23.86;71.18;97717.75;6104320;23;20179;-91
2022/07/05 14:36:33;;;;;;;9.40;4.50;;;;;;;21.73;70.80;97346.78;6108854;23;20199;-90
2022/07/05 14:39:00;;;;;;;11.37;4.93;;;;;;;21.06;71.07;97275.09;6083499;23;20171;-91
2022/07/05 14:41:28;;;;;;;7.10;4.33;;;;;;;19.08;70.67;96895.22;6081284;23;20180;-90
2022/07/05 14:43:55;;;;;;;7.10;4.13;;;;;;;21.01;70.29;97263.88;6056399;23;20204;-91
2022/07/05 14:46:22;;;;;;;7.10;3.67;;;;;;;21.33;71.07;97298.84;6056960;23;20179;-90
2022/07/05 14:48:48;;;;;;;6.83;4.40;;;;;;;19.76;71.10;97012.75;6084864;23;20186;-93
2022/07/05 14:51:15;;;;;;;9.83;4.20;;;;;;;19.81;70.98;97036.72;6059875;23;20187;-90
2022/07/05 14:53:44;;;;;;;7.33;4.00;;;;;;;21.61;72.07;97340.50;6104084;23;20239;-90
2022/07/05 14:56:12;;;;;;;7.10;4.00;;;;;;;21.68;71.09;97373.09;6084407;23;20195;-90
2022/07/05 14:58:39;;;;;;;6.43;3.70;;;;;;;18.97;71.13;96850.75;6105262;23;20684;-91
2022/07/05 15:01:05;;;;;;;6.20;3.80;;;;;;;17.79;71.05;96666.63;6109061;23;20180;-90
2022/07/05 15:03:33;;;;;;;5.53;3.50;;;;;;;18.26;71.26;96744.31;6083125;23;20178;-90
2022/07/05 15:06:02;;;;;;;6.60;4.30;;;;;;;20.33;71.46;97138.53;6081530;23;20175;-91
2022/07/05 15:08:29;;;;;;;7.03;3.47;;;;;;;20.61;71.62;97144.44;6082866;23;20196;-89
2022/07/05 15:10:56;;;;;;;6.47;3.97;;;;;;;20.36;71.33;97083.34;6084780;23;20172;-90
2022/07/05 15:13:25;;;;;;;7.37;4.47;;;;;;;19.02;71.01;96872.13;6108746;23;20176;-93
2022/07/05 15:15:52;;;;;;;7.40;3.90;;;;;;;18.78;71.49;96845.97;6083839;23;20211;-90
2022/07/05 15:18:19;;;;;;;6.87;3.93;;;;;;;21.00;71.28;97206.84;6107219;23;20196;-91
2022/07/05 15:20:46;;;;;;;6.80;3.93;;;;;;;22.64;71.71;97518.16;6105690;23;20160;-89
2022/07/05 15:23:13;;;;;;;7.83;4.37;;;;;;;20.95;71.77;97200.72;6085054;23;20183;-90
2022/07/05 15:25:40;;;;;;;6.67;3.63;;;;;;;20.75;71.52;97152.47;6035139;23;20164;-91
2022/07/05 15:28:09;;;;;;;8.50;3.90;;;;;;;22.01;71.87;97362.03;6080990;23;20196;-91
2022/07/05 15:30:37;;;;;;;4.83;3.70;;;;;;;18.88;71.16;96822.50;6082892;23;20202;-91
2022/07/05 15:33:04;;;;;;;4.70;3.23;;;;;;;20.93;71.37;97215.09;6081956;23;20236;-91
2022/07/05 15:35:30;;;;;;;6.87;3.90;;;;;;;18.64;71.65;96781.94;6060235;23;20199;-92
2022/07/05 15:37:58;;;;;;;5.17;3.60;;;;;;;21.43;71.79;97317.03;6090592;23;20175;-91
2022/07/05 15:40:33;;;;;;;5.67;3.53;;;;;;;20.38;71.38;97117.44;6073155;23;20428;-88
2022/07/05 15:43:00;;;;;;;5.33;3.43;;;;;;;23.64;71.45;97641.94;6076792;23;20183;-91
2022/07/05 15:45:27;;;;;;;6.53;3.33;;;;;;;23.24;71.06;97585.44;6069668;23;20226;-90
2022/07/05 15:47:53;;;;;;;7.70;3.77;;;;;;;23.42;71.25;97617.50;6070179;23;20279;-89
2022/07/05 15:50:20;;;;;;;7.53;3.50;;;;;;;23.18;71.41;97600.66;6022880;23;20180;-90
2022/07/05 15:52:47;;;;;;;6.93;3.67;;;;;;;22.55;71.25;97463.25;6047155;23;20690;-90
2022/07/05 15:55:13;;;;;;;7.23;4.03;;;;;;;21.74;71.04;97303.38;6072406;23;20210;-90
2022/07/05 15:57:40;;;;;;;7.30;3.70;;;;;;;23.88;71.22;97675.88;6049623;23;20224;-90
2022/07/05 16:00:07;;;;;;;7.47;4.00;;;;;;;21.07;71.32;97183.16;6073436;23;20207;-89
2022/07/05 16:02:34;;;;;;;7.07;3.50;;;;;;;23.04;71.58;97525.09;6075287;23;20176;-92
2022/07/05 16:05:01;;;;;;;5.27;3.23;;;;;;;23.04;71.81;97517.41;6073516;23;20176;-90
2022/07/05 16:07:28;;;;;;;4.80;3.53;;;;;;;19.86;71.28;96989.22;6071796;23;20196;-89
2022/07/05 16:09:54;;;;;;;6.53;3.10;;;;;;;20.06;71.25;97035.69;6049746;23;20250;-91
2022/07/05 16:12:41;;;;;;;4.90;3.40;;;;;;;23.89;71.66;97662.19;6070330;23;20262;-90
2022/07/05 16:15:09;;;;;;;6.23;3.57;;;;;;;22.90;71.26;97516.22;6068635;23;20200;-87
2022/07/05 16:17:35;;;;;;;5.97;3.63;;;;;;;23.14;71.16;97558.69;6020925;23;20195;-89
2022/07/05 16:20:02;;;;;;;4.87;3.57;;;;;;;22.23;71.17;97383.06;6044382;23;20207;-88
2022/07/05 16:22:30;;;;;;;6.07;3.80;;;;;;;22.74;71.59;97476.53;6068251;23;20247;-89
2022/07/05 16:24:56;;;;;;;6.30;3.73;;;;;;;22.82;71.18;97480.16;6063890;23;20254;-89
2022/07/05 16:27:23;;;;;;;4.70;3.30;;;;;;;23.41;71.30;97591.81;6067912;23;20210;-90
2022/07/05 16:29:50;;;;;;;9.97;3.60;;;;;;;20.19;71.35;97027.59;6067054;23;20168;-89
2022/07/05 16:32:16;;;;;;;5.60;3.20;;;;;;;23.18;71.48;97534.81;6067016;23;20226;-90
2022/07/05 16:34:43;;;;;;;3.70;3.13;;;;;;;21.55;71.50;97266.19;6094165;23;20183;-90
2022/07/05 16:37:09;;;;;;;6.50;3.90;;;;;;;21.71;71.21;97290.47;6094213;23;20226;-90
2022/07/05 16:39:36;;;;;;;7.90;3.83;;;;;;;19.58;71.09;96934.09;6070821;23;20183;-90
2022/07/05 16:42:06;;;;;;;6.73;3.40;;;;;;;21.19;71.07;97198.81;6095436;23;20277;-90
2022/07/05 16:44:32;;;;;;;5.43;3.10;;;;;;;22.24;71.34;97383.94;6116342;23;20168;-90
2022/07/05 16:46:59;;;;;;;6.97;3.20;;;;;;;22.88;71.24;97487.97;6070741;23;20223;-89
2022/07/05 16:49:26;;;;;;;6.63;3.77;;;;;;;22.93;70.72;97498.34;6092221;23;20178;-88
2022/07/05 16:51:52;;;;;;;4.67;3.13;;;;;;;23.11;70.88;97532.09;6066444;23;20511;-91
2022/07/05 16:54:19;;;;;;;5.83;3.67;;;;;;;22.76;70.88;97479.13;6071036;23;20255;-90
2022/07/05 16:56:46;;;;;;;4.80;2.97;;;;;;;23.25;71.16;97552.16;6073175;23;20195;-89
2022/07/05 16:59:12;;;;;;;4.50;2.90;;;;;;;23.63;71.20;97632.53;6072043;23;20211;-89
2022/07/05 17:01:39;;;;;;;7.07;4.00;;;;;;;21.78;70.82;97294.06;6070588;23;20234;-89
2022/07/05 17:04:06;;;;;;;6.13;2.93;;;;;;;22.71;71.32;97462.81;6095924;23;20168;-89
2022/07/05 17:06:33;;;;;;;6.87;3.53;;;;;;;23.90;72.20;97686.16;6094597;23;20186;-87
2022/07/05 17:08:59;;;;;;;10.30;3.50;;;;;;;22.73;72.51;97497.88;6099552;23;20211;-90
2022/07/05 17:11:26;;;;;;;8.70;3.20;;;;;;;20.79;72.41;97192.59;6084690;23;20200;-89
2022/07/05 17:13:53;;;;;;;4.50;2.87;;;;;;;21.01;72.29;97202.56;6108877;23;20534;-86
2022/07/05 17:16:25;;;;;;;7.17;3.43;;;;;;;18.70;71.70;96766.84;6084091;23;20199;-89
2022/07/05 17:18:56;;;;;;;5.43;2.90;;;;;;;20.07;71.86;97065.50;6108574;23;20184;-89
2022/07/05 17:21:23;;;;;;;8.67;2.90;;;;;;;20.58;71.17;97110.31;6060364;23;20166;-88
2022/07/05 17:23:50;;;;;;;8.33;3.80;;;;;;;18.57;70.88;96735.91;6085010;23;20187;-90
2022/07/05 17:26:18;;;;;;;8.10;3.30;;;;;;;21.94;72.29;97335.44;6108212;23;20178;-87
2022/07/05 17:28:50;;;;;;;5.33;3.10;;;;;;;20.02;71.06;97013.47;6083071;23;20172;-89
2022/07/05 17:31:17;;;;;;;8.03;3.63;;;;;;;23.61;71.58;97626.50;6084587;23;20176;-88
2022/07/05 17:33:44;;;;;;;6.90;3.20;;;;;;;22.08;71.33;97354.53;6062535;23;20184;-89
2022/07/05 17:36:11;;;;;;;6.37;2.90;;;;;;;20.84;71.22;97138.25;6060893;23;20199;-88
2022/07/05 17:38:38;;;;;;;5.17;3.00;;;;;;;21.34;71.56;97255.44;6084855;23;20274;-89
2022/07/05 17:41:07;;;;;;;7.13;3.50;;;;;;;18.91;70.21;96810.72;6106089;23;20176;-89
2022/07/05 17:43:34;;;;;;;4.57;2.83;;;;;;;20.30;71.08;97044.03;6073559;23;20248;-89
2022/07/05 17:46:01;;;;;;;4.87;2.93;;;;;;;22.08;71.35;97364.75;6096878;23;20204;-90
2022/07/05 17:48:27;;;;;;;5.73;3.03;;;;;;;23.22;71.45;97569.09;6073139;23;20525;-88
2022/07/05 17:50:54;;;;;;;5.57;2.67;;;;;;;21.54;70.58;97264.47;6071670;23;20164;-90
2022/07/05 17:53:21;;;;;;;5.87;3.10;;;;;;;21.98;70.49;97370.50;6096791;23;20199;-88
2022/07/05 17:55:48;;;;;;;7.67;3.00;;;;;;;21.51;70.30;97284.84;6070472;23;20178;-88
2022/07/05 17:58:15;;;;;;;4.53;2.67;;;;;;;22.11;69.96;97364.84;6073355;23;20227;-89
2022/07/05 18:00:41;;;;;;;5.37;2.97;;;;;;;23.56;70.48;97635.75;6097937;23;20553;-89
2022/07/05 18:03:08;;;;;;;3.77;2.53;;;;;;;22.20;69.99;97406.03;6074945;23;20183;-90
2022/07/05 18:05:35;;;;;;;4.47;2.60;;;;;;;23.54;70.08;97621.19;6073666;23;20571;-90
2022/07/05 18:08:01;;;;;;;5.10;2.70;;;;;;;23.17;70.35;97586.06;6096253;23;20242;-89
2022/07/05 18:10:28;;;;;;;6.53;2.60;;;;;;;22.51;69.64;97495.63;6049489;23;20180;-88
2022/07/05 18:12:55;;;;;;;10.57;2.83;;;;;;;22.99;70.16;97537.81;6053927;23;20183;-89
2022/07/05 18:15:22;;;;;;;3.30;2.40;;;;;;;23.63;70.16;97635.09;6101912;23;20187;-91
2022/07/05 18:17:49;;;;;;;3.83;2.60;;;;;;;20.95;69.90;97226.28;6108470;23;20207;-90
2022/07/05 18:20:16;;;;;;;5.27;2.77;;;;;;;20.43;69.88;97087.78;6060966;23;20180;-90
2022/07/05 18:22:43;;;;;;;5.97;2.97;;;;;;;21.30;70.24;97286.84;6108083;23;20184;-90
2022/07/05 18:25:10;;;;;;;4.17;2.57;;;;;;;21.08;69.94;97258.13;6060703;23;20187;-90
2022/07/05 18:27:36;;;;;;;2.70;2.30;;;;;;;22.23;69.98;97454.72;6058664;23;20192;-90
2022/07/05 18:30:04;;;;;;;5.87;2.77;;;;;;;21.14;69.08;97260.84;6081687;23;20172;-90
2022/07/05 18:32:31;;;;;;;3.27;2.20;;;;;;;20.74;69.51;97205.22;6080466;23;20215;-90
2022/07/05 18:34:58;;;;;;;4.30;2.40;;;;;;;20.87;69.44;97179.19;6077189;23;20216;-90
2022/07/05 18:37:24;;;;;;;3.40;2.33;;;;;;;21.65;69.62;97357.66;6107972;23;20199;-90
2022/07/05 18:39:51;;;;;;;3.50;2.30;;;;;;;22.45;69.42;97474.06;6085487;23;20180;-91
2022/07/05 18:42:17;;;;;;;4.07;2.37;;;;;;;20.52;69.55;97146.72;6110594;23;20187;-89
2022/07/05 18:44:44;;;;;;;5.10;2.60;;;;;;;22.21;69.36;97425.69;6088067;23;20183;-90